Exeland, Wisconsin
Current Conditions -  °F | °C
As of 10:35 AM on Monday 26 Jan 2015 (Local Time) from KRCX Reporting Station
Light Snow Light Snow  
Wind Chill: -11°   Ceiling: 500
Heat Index: -6°   Visibility: 2mi
Dew Point: -7°   Wind: 7mph
Humidity: 93%   Direction: 150°SSE
Pressure: 29.73"   Gusts: NA
Location:  45.67°N, 91.24°W
Report Text: KRCX 261635Z AUTO 15006KT 2SM -SN OVC005 M06/M07 A2973 RMK AO2 T10631072
Loading
Personal Weather Stations






























Interactive Weather Map New forecast layout! Learn more

10-Day Weather Forecast

Advertisements
Track Severe Weather on mobile